sensor_id;sensor_type;location;lat;lon;timestamp;P1;durP1;ratioP1;P2;durP2;ratioP2
14247;SDS011;7208;49.826;6.004;2023-03-01T00:00:38;6.57;;;3.03;;
14247;SDS011;7208;49.826;6.004;2023-03-01T00:03:04;3.23;;;3.03;;
14247;SDS011;7208;49.826;6.004;2023-03-01T00:05:31;2.27;;;2.07;;
14247;SDS011;7208;49.826;6.004;2023-03-01T00:07:57;2.70;;;2.50;;
14247;SDS011;7208;49.826;6.004;2023-03-01T00:10:23;2.70;;;2.50;;
14247;SDS011;7208;49.826;6.004;2023-03-01T00:12:51;3.10;;;2.80;;
14247;SDS011;7208;49.826;6.004;2023-03-01T00:15:17;3.43;;;3.03;;
14247;SDS011;7208;49.826;6.004;2023-03-01T00:17:43;2.27;;;2.17;;
14247;SDS011;7208;49.826;6.004;2023-03-01T00:20:10;2.97;;;2.67;;
14247;SDS011;7208;49.826;6.004;2023-03-01T00:22:36;6.90;;;3.43;;
14247;SDS011;7208;49.826;6.004;2023-03-01T00:25:03;3.37;;;3.07;;
14247;SDS011;7208;49.826;6.004;2023-03-01T00:27:29;3.03;;;2.77;;
14247;SDS011;7208;49.826;6.004;2023-03-01T00:29:55;2.80;;;2.60;;
14247;SDS011;7208;49.826;6.004;2023-03-01T00:32:21;6.13;;;2.90;;
14247;SDS011;7208;49.826;6.004;2023-03-01T00:34:47;2.60;;;2.40;;
14247;SDS011;7208;49.826;6.004;2023-03-01T00:37:20;2.80;;;2.57;;
14247;SDS011;7208;49.826;6.004;2023-03-01T00:39:46;2.90;;;2.70;;
14247;SDS011;7208;49.826;6.004;2023-03-01T00:42:12;2.83;;;2.63;;
14247;SDS011;7208;49.826;6.004;2023-03-01T00:44:38;2.90;;;2.70;;
14247;SDS011;7208;49.826;6.004;2023-03-01T00:47:04;3.90;;;2.87;;
14247;SDS011;7208;49.826;6.004;2023-03-01T00:49:30;3.53;;;3.23;;
14247;SDS011;7208;49.826;6.004;2023-03-01T00:51:56;2.93;;;2.53;;
14247;SDS011;7208;49.826;6.004;2023-03-01T00:54:22;6.10;;;3.07;;
14247;SDS011;7208;49.826;6.004;2023-03-01T00:56:48;3.10;;;2.77;;
14247;SDS011;7208;49.826;6.004;2023-03-01T00:59:14;3.07;;;2.77;;
14247;SDS011;7208;49.826;6.004;2023-03-01T01:01:40;3.80;;;3.40;;
14247;SDS011;7208;49.826;6.004;2023-03-01T01:04:10;4.63;;;2.57;;
14247;SDS011;7208;49.826;6.004;2023-03-01T01:06:38;2.93;;;2.73;;
14247;SDS011;7208;49.826;6.004;2023-03-01T01:09:07;3.77;;;2.43;;
14247;SDS011;7208;49.826;6.004;2023-03-01T01:11:33;3.03;;;2.83;;
14247;SDS011;7208;49.826;6.004;2023-03-01T01:14:02;3.27;;;2.90;;
14247;SDS011;7208;49.826;6.004;2023-03-01T01:16:29;3.83;;;3.53;;
14247;SDS011;7208;49.826;6.004;2023-03-01T01:18:55;3.70;;;3.03;;
14247;SDS011;7208;49.826;6.004;2023-03-01T01:21:23;3.03;;;2.83;;
14247;SDS011;7208;49.826;6.004;2023-03-01T01:23:49;5.20;;;3.13;;
14247;SDS011;7208;49.826;6.004;2023-03-01T01:28:44;4.33;;;2.27;;
14247;SDS011;7208;49.826;6.004;2023-03-01T01:31:10;3.30;;;3.10;;
14247;SDS011;7208;49.826;6.004;2023-03-01T01:33:36;3.13;;;2.70;;
14247;SDS011;7208;49.826;6.004;2023-03-01T01:36:03;3.53;;;3.23;;
14247;SDS011;7208;49.826;6.004;2023-03-01T01:38:29;2.83;;;2.63;;
14247;SDS011;7208;49.826;6.004;2023-03-01T01:40:55;3.97;;;3.57;;
14247;SDS011;7208;49.826;6.004;2023-03-01T01:43:26;3.93;;;2.93;;
14247;SDS011;7208;49.826;6.004;2023-03-01T01:45:55;4.07;;;3.17;;
14247;SDS011;7208;49.826;6.004;2023-03-01T01:48:23;2.77;;;2.57;;
14247;SDS011;7208;49.826;6.004;2023-03-01T01:50:53;3.27;;;2.97;;
14247;SDS011;7208;49.826;6.004;2023-03-01T01:53:21;2.80;;;2.60;;
14247;SDS011;7208;49.826;6.004;2023-03-01T01:55:48;2.73;;;2.53;;
14247;SDS011;7208;49.826;6.004;2023-03-01T01:58:16;3.23;;;2.93;;
14247;SDS011;7208;49.826;6.004;2023-03-01T02:00:43;2.80;;;2.60;;
14247;SDS011;7208;49.826;6.004;2023-03-01T02:03:10;3.37;;;3.07;;
14247;SDS011;7208;49.826;6.004;2023-03-01T02:08:10;2.77;;;2.57;;
14247;SDS011;7208;49.826;6.004;2023-03-01T02:10:36;3.83;;;2.50;;
14247;SDS011;7208;49.826;6.004;2023-03-01T02:13:03;2.80;;;2.60;;
14247;SDS011;7208;49.826;6.004;2023-03-01T02:15:33;3.07;;;2.87;;
14247;SDS011;7208;49.826;6.004;2023-03-01T02:17:59;5.33;;;3.77;;
14247;SDS011;7208;49.826;6.004;2023-03-01T02:22:56;3.80;;;3.00;;
14247;SDS011;7208;49.826;6.004;2023-03-01T02:30:33;4.50;;;2.97;;
14247;SDS011;7208;49.826;6.004;2023-03-01T02:32:59;3.53;;;3.23;;
14247;SDS011;7208;49.826;6.004;2023-03-01T02:35:33;2.93;;;2.73;;
14247;SDS011;7208;49.826;6.004;2023-03-01T02:38:00;3.30;;;3.00;;
14247;SDS011;7208;49.826;6.004;2023-03-01T02:40:28;3.67;;;3.37;;
14247;SDS011;7208;49.826;6.004;2023-03-01T02:42:56;4.10;;;3.57;;
14247;SDS011;7208;49.826;6.004;2023-03-01T02:45:22;3.07;;;2.87;;
14247;SDS011;7208;49.826;6.004;2023-03-01T02:47:48;3.70;;;3.40;;
14247;SDS011;7208;49.826;6.004;2023-03-01T02:53:08;3.17;;;2.97;;
14247;SDS011;7208;49.826;6.004;2023-03-01T02:55:36;4.03;;;3.70;;
14247;SDS011;7208;49.826;6.004;2023-03-01T02:58:03;3.20;;;3.00;;
14247;SDS011;7208;49.826;6.004;2023-03-01T03:00:32;3.00;;;2.70;;
14247;SDS011;7208;49.826;6.004;2023-03-01T03:02:59;3.97;;;3.20;;
14247;SDS011;7208;49.826;6.004;2023-03-01T03:05:27;3.80;;;3.47;;
14247;SDS011;7208;49.826;6.004;2023-03-01T03:07:53;7.63;;;3.93;;
14247;SDS011;7208;49.826;6.004;2023-03-01T03:10:21;3.40;;;2.97;;
14247;SDS011;7208;49.826;6.004;2023-03-01T03:12:49;4.50;;;3.87;;
14247;SDS011;7208;49.826;6.004;2023-03-01T03:15:15;4.27;;;3.87;;
14247;SDS011;7208;49.826;6.004;2023-03-01T03:17:42;4.70;;;3.80;;
14247;SDS011;7208;49.826;6.004;2023-03-01T03:20:10;4.40;;;4.00;;
14247;SDS011;7208;49.826;6.004;2023-03-01T03:22:40;4.07;;;3.67;;
14247;SDS011;7208;49.826;6.004;2023-03-01T03:25:07;4.30;;;3.90;;
14247;SDS011;7208;49.826;6.004;2023-03-01T03:27:36;5.53;;;3.30;;
14247;SDS011;7208;49.826;6.004;2023-03-01T03:30:03;4.37;;;3.97;;
14247;SDS011;7208;49.826;6.004;2023-03-01T03:32:33;2.83;;;2.63;;
14247;SDS011;7208;49.826;6.004;2023-03-01T03:35:00;4.33;;;3.33;;
14247;SDS011;7208;49.826;6.004;2023-03-01T03:37:26;4.63;;;3.60;;
14247;SDS011;7208;49.826;6.004;2023-03-01T03:40:11;4.10;;;3.20;;
14247;SDS011;7208;49.826;6.004;2023-03-01T03:42:40;5.43;;;3.97;;
14247;SDS011;7208;49.826;6.004;2023-03-01T03:45:06;3.50;;;3.17;;
14247;SDS011;7208;49.826;6.004;2023-03-01T03:47:32;4.20;;;3.43;;
14247;SDS011;7208;49.826;6.004;2023-03-01T03:49:58;4.10;;;3.70;;
14247;SDS011;7208;49.826;6.004;2023-03-01T03:52:24;3.70;;;3.40;;
14247;SDS011;7208;49.826;6.004;2023-03-01T03:54:51;4.23;;;3.83;;
14247;SDS011;7208;49.826;6.004;2023-03-01T03:57:17;4.20;;;3.80;;
14247;SDS011;7208;49.826;6.004;2023-03-01T03:59:43;6.23;;;3.57;;
14247;SDS011;7208;49.826;6.004;2023-03-01T04:02:09;4.07;;;3.57;;
14247;SDS011;7208;49.826;6.004;2023-03-01T04:04:35;3.53;;;3.23;;
14247;SDS011;7208;49.826;6.004;2023-03-01T04:07:01;4.27;;;3.93;;
14247;SDS011;7208;49.826;6.004;2023-03-01T04:09:27;4.07;;;3.53;;
14247;SDS011;7208;49.826;6.004;2023-03-01T04:11:55;4.37;;;3.97;;
14247;SDS011;7208;49.826;6.004;2023-03-01T04:14:21;4.47;;;3.77;;
14247;SDS011;7208;49.826;6.004;2023-03-01T04:16:47;5.07;;;3.63;;
14247;SDS011;7208;49.826;6.004;2023-03-01T04:19:13;3.97;;;3.67;;
14247;SDS011;7208;49.826;6.004;2023-03-01T04:21:40;5.40;;;4.53;;
14247;SDS011;7208;49.826;6.004;2023-03-01T04:24:06;5.57;;;4.73;;
14247;SDS011;7208;49.826;6.004;2023-03-01T04:26:33;4.27;;;3.83;;
14247;SDS011;7208;49.826;6.004;2023-03-01T04:28:59;5.60;;;4.20;;
14247;SDS011;7208;49.826;6.004;2023-03-01T04:31:25;5.33;;;4.23;;
14247;SDS011;7208;49.826;6.004;2023-03-01T04:33:52;4.20;;;3.77;;
14247;SDS011;7208;49.826;6.004;2023-03-01T04:36:19;4.63;;;4.13;;
14247;SDS011;7208;49.826;6.004;2023-03-01T04:38:46;5.67;;;5.13;;
14247;SDS011;7208;49.826;6.004;2023-03-01T04:41:13;4.70;;;4.10;;
14247;SDS011;7208;49.826;6.004;2023-03-01T04:43:39;5.57;;;4.80;;
14247;SDS011;7208;49.826;6.004;2023-03-01T04:46:09;5.00;;;3.90;;
14247;SDS011;7208;49.826;6.004;2023-03-01T04:48:37;4.87;;;4.47;;
14247;SDS011;7208;49.826;6.004;2023-03-01T04:51:03;6.03;;;4.33;;
14247;SDS011;7208;49.826;6.004;2023-03-01T04:53:30;4.03;;;3.70;;
14247;SDS011;7208;49.826;6.004;2023-03-01T04:55:57;8.90;;;4.07;;
14247;SDS011;7208;49.826;6.004;2023-03-01T04:58:24;7.30;;;3.97;;
14247;SDS011;7208;49.826;6.004;2023-03-01T05:00:51;6.50;;;4.00;;
14247;SDS011;7208;49.826;6.004;2023-03-01T05:03:17;4.50;;;4.10;;
14247;SDS011;7208;49.826;6.004;2023-03-01T05:05:43;4.63;;;3.93;;
14247;SDS011;7208;49.826;6.004;2023-03-01T05:08:10;4.30;;;3.90;;
14247;SDS011;7208;49.826;6.004;2023-03-01T05:10:42;4.27;;;3.50;;
14247;SDS011;7208;49.826;6.004;2023-03-01T05:13:08;4.77;;;4.37;;
14247;SDS011;7208;49.826;6.004;2023-03-01T05:15:34;5.30;;;4.80;;
14247;SDS011;7208;49.826;6.004;2023-03-01T05:18:01;3.83;;;3.53;;
14247;SDS011;7208;49.826;6.004;2023-03-01T05:20:28;5.23;;;4.70;;
14247;SDS011;7208;49.826;6.004;2023-03-01T05:22:55;4.67;;;4.20;;
14247;SDS011;7208;49.826;6.004;2023-03-01T05:25:21;5.10;;;4.13;;
14247;SDS011;7208;49.826;6.004;2023-03-01T05:27:47;5.37;;;4.43;;
14247;SDS011;7208;49.826;6.004;2023-03-01T05:30:13;4.70;;;4.20;;
14247;SDS011;7208;49.826;6.004;2023-03-01T05:32:44;5.37;;;4.97;;
14247;SDS011;7208;49.826;6.004;2023-03-01T05:35:11;5.70;;;5.20;;
14247;SDS011;7208;49.826;6.004;2023-03-01T05:37:38;5.60;;;4.57;;
14247;SDS011;7208;49.826;6.004;2023-03-01T05:40:05;6.13;;;4.63;;
14247;SDS011;7208;49.826;6.004;2023-03-01T05:42:32;4.70;;;4.30;;
14247;SDS011;7208;49.826;6.004;2023-03-01T05:44:58;5.60;;;4.50;;
14247;SDS011;7208;49.826;6.004;2023-03-01T05:47:24;4.30;;;3.90;;
14247;SDS011;7208;49.826;6.004;2023-03-01T05:49:50;5.53;;;4.13;;
14247;SDS011;7208;49.826;6.004;2023-03-01T05:52:16;5.07;;;4.47;;
14247;SDS011;7208;49.826;6.004;2023-03-01T05:54:42;5.60;;;4.37;;
14247;SDS011;7208;49.826;6.004;2023-03-01T05:57:08;4.53;;;4.13;;
14247;SDS011;7208;49.826;6.004;2023-03-01T05:59:35;10.48;;;9.38;;
14247;SDS011;7208;49.826;6.004;2023-03-01T06:02:01;9.80;;;7.47;;
14247;SDS011;7208;49.826;6.004;2023-03-01T06:04:27;6.50;;;5.83;;
14247;SDS011;7208;49.826;6.004;2023-03-01T06:06:53;5.17;;;4.70;;
14247;SDS011;7208;49.826;6.004;2023-03-01T06:09:19;5.33;;;4.83;;
14247;SDS011;7208;49.826;6.004;2023-03-01T06:11:45;5.53;;;4.40;;
14247;SDS011;7208;49.826;6.004;2023-03-01T06:14:11;5.20;;;4.07;;
14247;SDS011;7208;49.826;6.004;2023-03-01T06:16:39;5.17;;;4.70;;
14247;SDS011;7208;49.826;6.004;2023-03-01T06:19:05;5.87;;;5.13;;
14247;SDS011;7208;49.826;6.004;2023-03-01T06:21:31;5.10;;;3.77;;
14247;SDS011;7208;49.826;6.004;2023-03-01T06:23:57;4.37;;;4.07;;
14247;SDS011;7208;49.826;6.004;2023-03-01T06:26:23;4.90;;;4.33;;
14247;SDS011;7208;49.826;6.004;2023-03-01T06:28:49;5.90;;;5.13;;
14247;SDS011;7208;49.826;6.004;2023-03-01T06:31:15;5.40;;;4.83;;
14247;SDS011;7208;49.826;6.004;2023-03-01T06:33:41;11.50;;;5.07;;
14247;SDS011;7208;49.826;6.004;2023-03-01T06:36:09;4.43;;;4.03;;
14247;SDS011;7208;49.826;6.004;2023-03-01T06:38:35;8.73;;;5.77;;
14247;SDS011;7208;49.826;6.004;2023-03-01T06:41:01;7.40;;;5.23;;
14247;SDS011;7208;49.826;6.004;2023-03-01T06:43:27;6.70;;;4.73;;
14247;SDS011;7208;49.826;6.004;2023-03-01T06:45:53;6.57;;;5.40;;
14247;SDS011;7208;49.826;6.004;2023-03-01T06:48:19;4.93;;;4.40;;
14247;SDS011;7208;49.826;6.004;2023-03-01T06:50:45;5.53;;;4.93;;
14247;SDS011;7208;49.826;6.004;2023-03-01T06:53:11;6.10;;;5.50;;
14247;SDS011;7208;49.826;6.004;2023-03-01T06:55:37;4.93;;;4.40;;
14247;SDS011;7208;49.826;6.004;2023-03-01T06:58:03;5.30;;;4.80;;
14247;SDS011;7208;49.826;6.004;2023-03-01T07:00:30;5.00;;;4.50;;
14247;SDS011;7208;49.826;6.004;2023-03-01T07:02:58;6.60;;;5.17;;
14247;SDS011;7208;49.826;6.004;2023-03-01T07:05:24;8.27;;;5.23;;
14247;SDS011;7208;49.826;6.004;2023-03-01T07:07:50;6.77;;;5.53;;
14247;SDS011;7208;49.826;6.004;2023-03-01T07:10:16;4.83;;;4.33;;
14247;SDS011;7208;49.826;6.004;2023-03-01T07:12:42;7.97;;;5.30;;
14247;SDS011;7208;49.826;6.004;2023-03-01T07:15:08;6.30;;;5.70;;
14247;SDS011;7208;49.826;6.004;2023-03-01T07:17:35;6.80;;;5.73;;
14247;SDS011;7208;49.826;6.004;2023-03-01T07:20:01;5.70;;;4.90;;
14247;SDS011;7208;49.826;6.004;2023-03-01T07:22:27;7.30;;;4.70;;
14247;SDS011;7208;49.826;6.004;2023-03-01T07:24:53;5.87;;;5.27;;
14247;SDS011;7208;49.826;6.004;2023-03-01T07:27:19;6.93;;;5.57;;
14247;SDS011;7208;49.826;6.004;2023-03-01T07:29:45;5.87;;;4.97;;
14247;SDS011;7208;49.826;6.004;2023-03-01T07:32:11;7.87;;;6.10;;
14247;SDS011;7208;49.826;6.004;2023-03-01T07:34:37;5.60;;;4.93;;
14247;SDS011;7208;49.826;6.004;2023-03-01T07:37:03;5.63;;;5.13;;
14247;SDS011;7208;49.826;6.004;2023-03-01T07:39:29;6.37;;;5.13;;
14247;SDS011;7208;49.826;6.004;2023-03-01T07:41:55;6.70;;;5.90;;
14247;SDS011;7208;49.826;6.004;2023-03-01T07:44:21;6.80;;;5.60;;
14247;SDS011;7208;49.826;6.004;2023-03-01T07:46:47;5.17;;;4.63;;
14247;SDS011;7208;49.826;6.004;2023-03-01T07:49:13;8.97;;;5.80;;
14247;SDS011;7208;49.826;6.004;2023-03-01T07:51:39;6.97;;;6.27;;
14247;SDS011;7208;49.826;6.004;2023-03-01T07:54:05;7.70;;;6.13;;
14247;SDS011;7208;49.826;6.004;2023-03-01T07:56:31;6.63;;;5.60;;
14247;SDS011;7208;49.826;6.004;2023-03-01T07:58:58;6.37;;;5.77;;
14247;SDS011;7208;49.826;6.004;2023-03-01T08:01:24;7.37;;;5.60;;
14247;SDS011;7208;49.826;6.004;2023-03-01T08:03:50;7.13;;;5.67;;
14247;SDS011;7208;49.826;6.004;2023-03-01T08:06:17;6.10;;;5.17;;
14247;SDS011;7208;49.826;6.004;2023-03-01T08:08:43;6.07;;;5.57;;
14247;SDS011;7208;49.826;6.004;2023-03-01T08:11:13;8.53;;;6.23;;
14247;SDS011;7208;49.826;6.004;2023-03-01T08:13:39;7.30;;;6.60;;
14247;SDS011;7208;49.826;6.004;2023-03-01T08:16:07;7.10;;;6.27;;
14247;SDS011;7208;49.826;6.004;2023-03-01T08:18:33;7.70;;;6.63;;
14247;SDS011;7208;49.826;6.004;2023-03-01T08:21:03;6.93;;;6.23;;
14247;SDS011;7208;49.826;6.004;2023-03-01T08:23:30;9.10;;;6.40;;
14247;SDS011;7208;49.826;6.004;2023-03-01T08:26:02;9.23;;;6.17;;
14247;SDS011;7208;49.826;6.004;2023-03-01T08:28:28;6.57;;;5.97;;
14247;SDS011;7208;49.826;6.004;2023-03-01T08:30:54;8.13;;;6.43;;
14247;SDS011;7208;49.826;6.004;2023-03-01T08:33:20;8.10;;;5.07;;
14247;SDS011;7208;49.826;6.004;2023-03-01T08:35:46;8.93;;;6.00;;
14247;SDS011;7208;49.826;6.004;2023-03-01T08:38:12;7.90;;;5.90;;
14247;SDS011;7208;49.826;6.004;2023-03-01T08:40:38;6.13;;;5.33;;
14247;SDS011;7208;49.826;6.004;2023-03-01T08:43:04;6.80;;;6.10;;
14247;SDS011;7208;49.826;6.004;2023-03-01T08:45:30;6.60;;;5.90;;
14247;SDS011;7208;49.826;6.004;2023-03-01T08:47:56;7.27;;;6.20;;
14247;SDS011;7208;49.826;6.004;2023-03-01T08:50:22;6.73;;;5.60;;
14247;SDS011;7208;49.826;6.004;2023-03-01T08:52:49;8.10;;;7.23;;
14247;SDS011;7208;49.826;6.004;2023-03-01T08:55:15;7.70;;;6.90;;
14247;SDS011;7208;49.826;6.004;2023-03-01T08:57:42;7.77;;;6.97;;
14247;SDS011;7208;49.826;6.004;2023-03-01T09:00:09;9.10;;;7.70;;
14247;SDS011;7208;49.826;6.004;2023-03-01T09:02:36;7.77;;;6.40;;
14247;SDS011;7208;49.826;6.004;2023-03-01T09:05:03;8.90;;;7.27;;
14247;SDS011;7208;49.826;6.004;2023-03-01T09:07:29;9.83;;;8.13;;
14247;SDS011;7208;49.826;6.004;2023-03-01T09:09:55;9.33;;;7.63;;
14247;SDS011;7208;49.826;6.004;2023-03-01T09:12:22;9.70;;;7.87;;
14247;SDS011;7208;49.826;6.004;2023-03-01T09:14:49;8.63;;;7.83;;
14247;SDS011;7208;49.826;6.004;2023-03-01T09:17:15;7.43;;;6.73;;
14247;SDS011;7208;49.826;6.004;2023-03-01T09:19:41;9.70;;;8.23;;
14247;SDS011;7208;49.826;6.004;2023-03-01T09:22:07;7.87;;;6.93;;
14247;SDS011;7208;49.826;6.004;2023-03-01T09:24:33;8.80;;;7.90;;
14247;SDS011;7208;49.826;6.004;2023-03-01T09:26:59;8.60;;;7.80;;
14247;SDS011;7208;49.826;6.004;2023-03-01T09:29:26;8.30;;;7.40;;
14247;SDS011;7208;49.826;6.004;2023-03-01T09:31:52;7.90;;;7.13;;
14247;SDS011;7208;49.826;6.004;2023-03-01T09:34:20;8.33;;;7.50;;
14247;SDS011;7208;49.826;6.004;2023-03-01T09:36:48;8.27;;;7.47;;
14247;SDS011;7208;49.826;6.004;2023-03-01T09:39:14;8.60;;;7.73;;
14247;SDS011;7208;49.826;6.004;2023-03-01T09:46:41;9.37;;;8.03;;
14247;SDS011;7208;49.826;6.004;2023-03-01T09:49:19;9.03;;;8.00;;
14247;SDS011;7208;49.826;6.004;2023-03-01T09:51:54;8.43;;;7.63;;
14247;SDS011;7208;49.826;6.004;2023-03-01T09:54:21;8.83;;;8.03;;
14247;SDS011;7208;49.826;6.004;2023-03-01T09:59:26;10.50;;;7.73;;
14247;SDS011;7208;49.826;6.004;2023-03-01T10:01:59;8.03;;;7.23;;
14247;SDS011;7208;49.826;6.004;2023-03-01T10:07:09;9.07;;;7.63;;
14247;SDS011;7208;49.826;6.004;2023-03-01T10:09:41;9.03;;;8.13;;
14247;SDS011;7208;49.826;6.004;2023-03-01T10:12:08;9.17;;;8.27;;
14247;SDS011;7208;49.826;6.004;2023-03-01T10:14:37;9.47;;;8.67;;
14247;SDS011;7208;49.826;6.004;2023-03-01T10:17:05;9.60;;;8.77;;
14247;SDS011;7208;49.826;6.004;2023-03-01T10:19:36;10.57;;;9.57;;
14247;SDS011;7208;49.826;6.004;2023-03-01T10:22:04;14.57;;;10.57;;
14247;SDS011;7208;49.826;6.004;2023-03-01T10:24:34;10.00;;;8.60;;
14247;SDS011;7208;49.826;6.004;2023-03-01T10:27:01;9.40;;;8.20;;
14247;SDS011;7208;49.826;6.004;2023-03-01T10:29:31;9.53;;;8.63;;
14247;SDS011;7208;49.826;6.004;2023-03-01T10:32:01;10.30;;;8.50;;
14247;SDS011;7208;49.826;6.004;2023-03-01T10:34:32;9.23;;;8.43;;
14247;SDS011;7208;49.826;6.004;2023-03-01T10:39:34;9.77;;;8.57;;
14247;SDS011;7208;49.826;6.004;2023-03-01T10:42:02;9.07;;;8.20;;
14247;SDS011;7208;49.826;6.004;2023-03-01T10:44:35;9.27;;;8.37;;
14247;SDS011;7208;49.826;6.004;2023-03-01T10:47:02;9.00;;;8.10;;
14247;SDS011;7208;49.826;6.004;2023-03-01T10:49:29;9.97;;;9.00;;
14247;SDS011;7208;49.826;6.004;2023-03-01T10:51:55;9.63;;;8.73;;
14247;SDS011;7208;49.826;6.004;2023-03-01T10:54:31;11.03;;;8.20;;
14247;SDS011;7208;49.826;6.004;2023-03-01T10:56:58;9.33;;;8.37;;
14247;SDS011;7208;49.826;6.004;2023-03-01T11:04:36;8.50;;;7.57;;
14247;SDS011;7208;49.826;6.004;2023-03-01T11:07:02;8.30;;;7.50;;
14247;SDS011;7208;49.826;6.004;2023-03-01T11:09:32;10.10;;;8.17;;
14247;SDS011;7208;49.826;6.004;2023-03-01T11:12:03;7.97;;;7.17;;
14247;SDS011;7208;49.826;6.004;2023-03-01T11:14:33;8.53;;;7.83;;
14247;SDS011;7208;49.826;6.004;2023-03-01T11:17:02;9.37;;;8.47;;
14247;SDS011;7208;49.826;6.004;2023-03-01T11:19:28;8.10;;;7.30;;
14247;SDS011;7208;49.826;6.004;2023-03-01T11:24:32;9.10;;;8.20;;
14247;SDS011;7208;49.826;6.004;2023-03-01T11:26:59;8.97;;;8.17;;
14247;SDS011;7208;49.826;6.004;2023-03-01T11:29:27;9.65;;;8.75;;
14247;SDS011;7208;49.826;6.004;2023-03-01T11:31:57;10.05;;;9.15;;
14247;SDS011;7208;49.826;6.004;2023-03-01T11:35:26;9.47;;;8.50;;
14247;SDS011;7208;49.826;6.004;2023-03-01T11:39:53;8.13;;;7.33;;
14247;SDS011;7208;49.826;6.004;2023-03-01T11:42:25;8.10;;;7.40;;
14247;SDS011;7208;49.826;6.004;2023-03-01T11:44:54;8.60;;;7.70;;
14247;SDS011;7208;49.826;6.004;2023-03-01T11:50:08;8.63;;;7.90;;
14247;SDS011;7208;49.826;6.004;2023-03-01T12:05:50;8.33;;;7.60;;
14247;SDS011;7208;49.826;6.004;2023-03-01T12:08:27;9.07;;;8.13;;
14247;SDS011;7208;49.826;6.004;2023-03-01T12:26:35;9.13;;;8.23;;
14247;SDS011;7208;49.826;6.004;2023-03-01T12:31:41;8.53;;;7.80;;
14247;SDS011;7208;49.826;6.004;2023-03-01T12:34:21;8.70;;;7.90;;
14247;SDS011;7208;49.826;6.004;2023-03-01T12:41:55;8.83;;;8.00;;
14247;SDS011;7208;49.826;6.004;2023-03-01T12:44:35;8.80;;;8.00;;
14247;SDS011;7208;49.826;6.004;2023-03-01T12:47:14;8.80;;;8.10;;
14247;SDS011;7208;49.826;6.004;2023-03-01T12:49:46;8.70;;;7.90;;
14247;SDS011;7208;49.826;6.004;2023-03-01T12:54:39;8.33;;;7.63;;
14247;SDS011;7208;49.826;6.004;2023-03-01T12:57:09;8.20;;;7.50;;
14247;SDS011;7208;49.826;6.004;2023-03-01T12:59:39;8.70;;;8.00;;
14247;SDS011;7208;49.826;6.004;2023-03-01T13:02:17;7.83;;;7.03;;
14247;SDS011;7208;49.826;6.004;2023-03-01T13:12:42;8.43;;;7.73;;
14247;SDS011;7208;49.826;6.004;2023-03-01T13:17:47;8.73;;;7.83;;
14247;SDS011;7208;49.826;6.004;2023-03-01T13:20:15;8.37;;;7.63;;
14247;SDS011;7208;49.826;6.004;2023-03-01T13:22:41;8.53;;;7.83;;
14247;SDS011;7208;49.826;6.004;2023-03-01T13:25:25;8.30;;;7.50;;
14247;SDS011;7208;49.826;6.004;2023-03-01T13:27:51;8.00;;;7.37;;
14247;SDS011;7208;49.826;6.004;2023-03-01T13:30:39;8.10;;;7.40;;
14247;SDS011;7208;49.826;6.004;2023-03-01T13:33:33;7.47;;;6.87;;
14247;SDS011;7208;49.826;6.004;2023-03-01T13:35:55;8.00;;;7.30;;
14247;SDS011;7208;49.826;6.004;2023-03-01T13:38:55;7.30;;;6.70;;
14247;SDS011;7208;49.826;6.004;2023-03-01T13:41:14;8.27;;;7.53;;
14247;SDS011;7208;49.826;6.004;2023-03-01T13:43:41;7.70;;;6.90;;
14247;SDS011;7208;49.826;6.004;2023-03-01T13:46:09;7.13;;;6.53;;
14247;SDS011;7208;49.826;6.004;2023-03-01T13:48:36;7.53;;;6.93;;
14247;SDS011;7208;49.826;6.004;2023-03-01T13:51:04;7.53;;;6.73;;
14247;SDS011;7208;49.826;6.004;2023-03-01T13:53:31;7.10;;;6.40;;
14247;SDS011;7208;49.826;6.004;2023-03-01T13:56:12;8.63;;;6.10;;
14247;SDS011;7208;49.826;6.004;2023-03-01T13:58:56;6.97;;;6.27;;
14247;SDS011;7208;49.826;6.004;2023-03-01T14:01:31;6.83;;;6.23;;
14247;SDS011;7208;49.826;6.004;2023-03-01T14:03:58;7.60;;;6.90;;
14247;SDS011;7208;49.826;6.004;2023-03-01T14:06:25;7.43;;;6.73;;
14247;SDS011;7208;49.826;6.004;2023-03-01T14:09:13;6.67;;;6.07;;
14247;SDS011;7208;49.826;6.004;2023-03-01T14:14:34;7.03;;;6.43;;
14247;SDS011;7208;49.826;6.004;2023-03-01T14:19:42;8.17;;;7.33;;
14247;SDS011;7208;49.826;6.004;2023-03-01T14:24:49;7.00;;;6.40;;
14247;SDS011;7208;49.826;6.004;2023-03-01T14:27:15;7.57;;;6.77;;
14247;SDS011;7208;49.826;6.004;2023-03-01T14:29:42;6.97;;;6.37;;
14247;SDS011;7208;49.826;6.004;2023-03-01T14:32:09;6.97;;;6.37;;
14247;SDS011;7208;49.826;6.004;2023-03-01T14:34:35;7.23;;;6.53;;
14247;SDS011;7208;49.826;6.004;2023-03-01T14:39:46;10.27;;;7.97;;
14247;SDS011;7208;49.826;6.004;2023-03-01T14:42:12;7.33;;;6.63;;
14247;SDS011;7208;49.826;6.004;2023-03-01T14:44:41;8.10;;;7.30;;
14247;SDS011;7208;49.826;6.004;2023-03-01T14:47:11;7.17;;;6.47;;
14247;SDS011;7208;49.826;6.004;2023-03-01T14:49:38;7.50;;;6.80;;
14247;SDS011;7208;49.826;6.004;2023-03-01T14:52:06;8.17;;;6.97;;
14247;SDS011;7208;49.826;6.004;2023-03-01T14:54:37;9.33;;;8.43;;
14247;SDS011;7208;49.826;6.004;2023-03-01T14:57:05;7.07;;;6.43;;
14247;SDS011;7208;49.826;6.004;2023-03-01T14:59:33;7.83;;;7.03;;
14247;SDS011;7208;49.826;6.004;2023-03-01T15:01:59;8.23;;;6.83;;
14247;SDS011;7208;49.826;6.004;2023-03-01T15:04:26;7.27;;;6.57;;
14247;SDS011;7208;49.826;6.004;2023-03-01T15:06:53;6.20;;;5.70;;
14247;SDS011;7208;49.826;6.004;2023-03-01T15:09:20;6.40;;;5.80;;
14247;SDS011;7208;49.826;6.004;2023-03-01T15:11:46;5.87;;;5.20;;
14247;SDS011;7208;49.826;6.004;2023-03-01T15:14:25;6.07;;;5.40;;
14247;SDS011;7208;49.826;6.004;2023-03-01T15:16:52;6.57;;;5.93;;
14247;SDS011;7208;49.826;6.004;2023-03-01T15:19:19;6.57;;;5.73;;
14247;SDS011;7208;49.826;6.004;2023-03-01T15:21:46;6.20;;;5.60;;
14247;SDS011;7208;49.826;6.004;2023-03-01T15:24:19;6.50;;;5.40;;
14247;SDS011;7208;49.826;6.004;2023-03-01T15:26:56;6.70;;;5.70;;
14247;SDS011;7208;49.826;6.004;2023-03-01T15:29:27;6.53;;;5.93;;
14247;SDS011;7208;49.826;6.004;2023-03-01T15:31:59;6.53;;;5.87;;
14247;SDS011;7208;49.826;6.004;2023-03-01T15:34:27;5.57;;;5.07;;
14247;SDS011;7208;49.826;6.004;2023-03-01T15:36:54;6.53;;;5.90;;
14247;SDS011;7208;49.826;6.004;2023-03-01T15:45:19;7.43;;;5.73;;
14247;SDS011;7208;49.826;6.004;2023-03-01T15:47:46;6.80;;;6.10;;
14247;SDS011;7208;49.826;6.004;2023-03-01T15:53:14;6.87;;;6.20;;
14247;SDS011;7208;49.826;6.004;2023-03-01T15:55:41;7.03;;;6.20;;
14247;SDS011;7208;49.826;6.004;2023-03-01T15:58:14;6.20;;;5.33;;
14247;SDS011;7208;49.826;6.004;2023-03-01T16:00:41;5.87;;;5.37;;
14247;SDS011;7208;49.826;6.004;2023-03-01T16:03:08;6.13;;;5.63;;
14247;SDS011;7208;49.826;6.004;2023-03-01T16:05:36;5.10;;;4.70;;
14247;SDS011;7208;49.826;6.004;2023-03-01T16:08:03;6.77;;;6.07;;
14247;SDS011;7208;49.826;6.004;2023-03-01T16:10:30;6.27;;;5.67;;
14247;SDS011;7208;49.826;6.004;2023-03-01T16:12:56;8.10;;;7.37;;
14247;SDS011;7208;49.826;6.004;2023-03-01T16:15:24;6.50;;;5.90;;
14247;SDS011;7208;49.826;6.004;2023-03-01T16:17:50;6.20;;;5.60;;
14247;SDS011;7208;49.826;6.004;2023-03-01T16:20:17;6.10;;;5.60;;
14247;SDS011;7208;49.826;6.004;2023-03-01T16:22:43;6.57;;;5.50;;
14247;SDS011;7208;49.826;6.004;2023-03-01T16:25:14;6.03;;;5.53;;
14247;SDS011;7208;49.826;6.004;2023-03-01T16:27:44;7.43;;;6.73;;
14247;SDS011;7208;49.826;6.004;2023-03-01T16:30:11;7.90;;;7.20;;
14247;SDS011;7208;49.826;6.004;2023-03-01T16:32:40;6.70;;;6.00;;
14247;SDS011;7208;49.826;6.004;2023-03-01T16:35:07;7.87;;;7.13;;
14247;SDS011;7208;49.826;6.004;2023-03-01T16:37:35;8.17;;;7.43;;
14247;SDS011;7208;49.826;6.004;2023-03-01T16:40:01;7.23;;;6.53;;
14247;SDS011;7208;49.826;6.004;2023-03-01T16:42:32;7.67;;;6.97;;
14247;SDS011;7208;49.826;6.004;2023-03-01T16:44:58;7.60;;;7.00;;
14247;SDS011;7208;49.826;6.004;2023-03-01T16:47:25;8.10;;;7.40;;
14247;SDS011;7208;49.826;6.004;2023-03-01T16:49:52;7.20;;;6.50;;
14247;SDS011;7208;49.826;6.004;2023-03-01T16:52:18;7.00;;;6.40;;
14247;SDS011;7208;49.826;6.004;2023-03-01T16:54:44;6.97;;;6.37;;